sensor_id;sensor_type;location;lat;lon;timestamp;pressure;altitude;pressure_sealevel;temperature;humidity
69219;BME280;56232;53.384;-2.732;2023-11-19T00:00:20;99773.44;;;11.66;43.97
69219;BME280;56232;53.384;-2.732;2023-11-19T00:02:46;99773.74;;;11.75;43.00
69219;BME280;56232;53.384;-2.732;2023-11-19T00:05:11;99775.11;;;11.73;43.20
69219;BME280;56232;53.384;-2.732;2023-11-19T00:07:37;99766.25;;;12.70;43.45
69219;BME280;56232;53.384;-2.732;2023-11-19T00:10:02;99762.80;;;11.49;43.85
69219;BME280;56232;53.384;-2.732;2023-11-19T00:12:27;99761.55;;;11.56;43.49
69219;BME280;56232;53.384;-2.732;2023-11-19T00:14:52;99767.33;;;12.14;43.55
69219;BME280;56232;53.384;-2.732;2023-11-19T00:17:18;99764.13;;;12.18;43.96
69219;BME280;56232;53.384;-2.732;2023-11-19T00:19:44;99765.23;;;12.75;43.54
69219;BME280;56232;53.384;-2.732;2023-11-19T00:22:09;99761.21;;;11.59;43.59
69219;BME280;56232;53.384;-2.732;2023-11-19T00:24:35;99758.32;;;11.71;43.78
69219;BME280;56232;53.384;-2.732;2023-11-19T00:27:01;99758.35;;;12.33;43.68
69219;BME280;56232;53.384;-2.732;2023-11-19T00:29:26;99766.10;;;12.78;43.05
69219;BME280;56232;53.384;-2.732;2023-11-19T00:31:51;99759.74;;;12.80;42.95
69219;BME280;56232;53.384;-2.732;2023-11-19T00:34:17;99765.90;;;12.38;43.20
69219;BME280;56232;53.384;-2.732;2023-11-19T00:36:42;99747.50;;;12.59;42.87
69219;BME280;56232;53.384;-2.732;2023-11-19T00:39:07;99741.38;;;12.04;43.32
69219;BME280;56232;53.384;-2.732;2023-11-19T00:41:33;99746.28;;;12.19;43.62
69219;BME280;56232;53.384;-2.732;2023-11-19T00:43:58;99744.48;;;12.34;43.26
69219;BME280;56232;53.384;-2.732;2023-11-19T00:46:24;99749.69;;;12.41;42.79
69219;BME280;56232;53.384;-2.732;2023-11-19T00:48:49;99753.06;;;12.43;43.40
69219;BME280;56232;53.384;-2.732;2023-11-19T00:51:15;99754.75;;;12.51;42.72
69219;BME280;56232;53.384;-2.732;2023-11-19T00:53:41;99756.31;;;12.43;43.33
69219;BME280;56232;53.384;-2.732;2023-11-19T00:56:07;99755.84;;;13.66;43.03
69219;BME280;56232;53.384;-2.732;2023-11-19T00:58:32;99754.04;;;12.60;43.50
69219;BME280;56232;53.384;-2.732;2023-11-19T01:00:58;99753.24;;;12.76;43.06
69219;BME280;56232;53.384;-2.732;2023-11-19T01:03:22;99751.47;;;12.84;43.45
69219;BME280;56232;53.384;-2.732;2023-11-19T01:05:48;99741.87;;;13.10;43.11
69219;BME280;56232;53.384;-2.732;2023-11-19T01:08:13;99742.08;;;13.09;42.96
69219;BME280;56232;53.384;-2.732;2023-11-19T01:10:39;99736.60;;;13.73;42.73
69219;BME280;56232;53.384;-2.732;2023-11-19T01:13:04;99738.95;;;13.00;42.86
69219;BME280;56232;53.384;-2.732;2023-11-19T01:15:29;99733.48;;;12.54;42.75
69219;BME280;56232;53.384;-2.732;2023-11-19T01:17:54;99740.54;;;13.04;43.52
69219;BME280;56232;53.384;-2.732;2023-11-19T01:20:20;99739.23;;;13.09;43.12
69219;BME280;56232;53.384;-2.732;2023-11-19T01:22:45;99739.74;;;13.10;43.22
69219;BME280;56232;53.384;-2.732;2023-11-19T01:25:10;99736.61;;;13.26;43.43
69219;BME280;56232;53.384;-2.732;2023-11-19T01:27:36;99732.24;;;12.34;43.24
69219;BME280;56232;53.384;-2.732;2023-11-19T01:30:02;99720.60;;;13.33;42.54
69219;BME280;56232;53.384;-2.732;2023-11-19T01:32:27;99719.55;;;13.22;42.39
69219;BME280;56232;53.384;-2.732;2023-11-19T01:34:53;99713.78;;;13.08;42.75
69219;BME280;56232;53.384;-2.732;2023-11-19T01:37:18;99718.65;;;13.09;43.40
69219;BME280;56232;53.384;-2.732;2023-11-19T01:39:44;99722.92;;;13.25;42.93
69219;BME280;56232;53.384;-2.732;2023-11-19T01:42:09;99723.38;;;13.30;43.08
69219;BME280;56232;53.384;-2.732;2023-11-19T01:44:35;99720.36;;;12.82;42.80
69219;BME280;56232;53.384;-2.732;2023-11-19T01:47:00;99714.62;;;13.31;42.30
69219;BME280;56232;53.384;-2.732;2023-11-19T01:49:25;99700.33;;;13.10;42.79
69219;BME280;56232;53.384;-2.732;2023-11-19T01:51:50;99707.67;;;12.92;42.47
69219;BME280;56232;53.384;-2.732;2023-11-19T01:54:16;99712.29;;;12.64;42.86
69219;BME280;56232;53.384;-2.732;2023-11-19T01:56:42;99712.49;;;12.54;42.71
69219;BME280;56232;53.384;-2.732;2023-11-19T01:59:07;99720.01;;;12.29;43.54
69219;BME280;56232;53.384;-2.732;2023-11-19T02:01:34;99737.28;;;12.94;43.14
69219;BME280;56232;53.384;-2.732;2023-11-19T02:03:58;99739.06;;;12.76;43.14
69219;BME280;56232;53.384;-2.732;2023-11-19T02:06:24;99744.84;;;12.63;43.44
69219;BME280;56232;53.384;-2.732;2023-11-19T02:08:49;99742.07;;;13.00;43.95
69219;BME280;56232;53.384;-2.732;2023-11-19T02:11:14;99735.46;;;11.95;43.67
69219;BME280;56232;53.384;-2.732;2023-11-19T02:13:40;99736.68;;;11.92;43.71
69219;BME280;56232;53.384;-2.732;2023-11-19T02:16:06;99726.36;;;11.89;43.50
69219;BME280;56232;53.384;-2.732;2023-11-19T02:18:30;99735.00;;;11.91;43.95
69219;BME280;56232;53.384;-2.732;2023-11-19T02:20:56;99736.19;;;12.00;43.00
69219;BME280;56232;53.384;-2.732;2023-11-19T02:23:21;99735.14;;;11.98;43.49
69219;BME280;56232;53.384;-2.732;2023-11-19T02:25:56;99732.04;;;12.05;43.13
69219;BME280;56232;53.384;-2.732;2023-11-19T02:28:12;99732.69;;;12.11;43.96
69219;BME280;56232;53.384;-2.732;2023-11-19T02:30:38;99728.94;;;12.89;43.47
69219;BME280;56232;53.384;-2.732;2023-11-19T02:33:03;99728.43;;;12.41;42.93
69219;BME280;56232;53.384;-2.732;2023-11-19T02:35:28;99721.54;;;12.49;43.86
69219;BME280;56232;53.384;-2.732;2023-11-19T02:37:54;99720.98;;;13.78;42.51
69219;BME280;56232;53.384;-2.732;2023-11-19T02:40:19;99713.23;;;12.68;42.51
69219;BME280;56232;53.384;-2.732;2023-11-19T02:42:45;99710.92;;;13.33;43.20
69219;BME280;56232;53.384;-2.732;2023-11-19T02:45:10;99698.01;;;12.83;42.68
69219;BME280;56232;53.384;-2.732;2023-11-19T02:47:35;99695.59;;;12.82;43.18
69219;BME280;56232;53.384;-2.732;2023-11-19T02:50:01;99698.68;;;12.85;42.34
69219;BME280;56232;53.384;-2.732;2023-11-19T02:52:27;99699.27;;;12.77;43.06
69219;BME280;56232;53.384;-2.732;2023-11-19T02:54:53;99695.18;;;12.90;43.37
69219;BME280;56232;53.384;-2.732;2023-11-19T02:57:18;99690.62;;;12.91;42.47
69219;BME280;56232;53.384;-2.732;2023-11-19T02:59:44;99691.37;;;13.26;42.99
69219;BME280;56232;53.384;-2.732;2023-11-19T03:02:10;99682.74;;;12.46;42.85
69219;BME280;56232;53.384;-2.732;2023-11-19T03:04:35;99672.66;;;12.85;43.07
69219;BME280;56232;53.384;-2.732;2023-11-19T03:07:01;99671.63;;;12.16;43.00
69219;BME280;56232;53.384;-2.732;2023-11-19T03:09:27;99674.72;;;11.86;42.73
69219;BME280;56232;53.384;-2.732;2023-11-19T03:11:52;99675.50;;;12.60;43.32
69219;BME280;56232;53.384;-2.732;2023-11-19T03:14:17;99673.14;;;11.98;43.40
69219;BME280;56232;53.384;-2.732;2023-11-19T03:16:45;99674.89;;;11.89;43.41
69219;BME280;56232;53.384;-2.732;2023-11-19T03:19:09;99680.12;;;12.25;43.56
69219;BME280;56232;53.384;-2.732;2023-11-19T03:21:35;99678.23;;;12.19;43.60
69219;BME280;56232;53.384;-2.732;2023-11-19T03:24:00;99676.80;;;11.67;43.30
69219;BME280;56232;53.384;-2.732;2023-11-19T03:26:26;99678.35;;;12.04;43.67
69219;BME280;56232;53.384;-2.732;2023-11-19T03:28:51;99686.73;;;11.97;43.62
69219;BME280;56232;53.384;-2.732;2023-11-19T03:31:17;99690.44;;;12.05;43.76
69219;BME280;56232;53.384;-2.732;2023-11-19T03:33:43;99686.48;;;12.19;43.86
69219;BME280;56232;53.384;-2.732;2023-11-19T03:36:08;99697.07;;;12.33;43.87
69219;BME280;56232;53.384;-2.732;2023-11-19T03:38:34;99690.34;;;12.42;43.29
69219;BME280;56232;53.384;-2.732;2023-11-19T03:40:59;99686.94;;;12.60;43.15
69219;BME280;56232;53.384;-2.732;2023-11-19T03:43:25;99691.72;;;12.59;43.20
69219;BME280;56232;53.384;-2.732;2023-11-19T03:45:50;99690.15;;;11.51;43.33
69219;BME280;56232;53.384;-2.732;2023-11-19T03:48:16;99690.38;;;12.17;43.19
69219;BME280;56232;53.384;-2.732;2023-11-19T03:50:42;99694.06;;;12.61;43.35
69219;BME280;56232;53.384;-2.732;2023-11-19T03:53:07;99694.18;;;12.62;42.88
69219;BME280;56232;53.384;-2.732;2023-11-19T03:55:34;99697.31;;;12.21;43.22
69219;BME280;56232;53.384;-2.732;2023-11-19T03:57:58;99700.00;;;11.74;43.30
69219;BME280;56232;53.384;-2.732;2023-11-19T04:00:23;99697.45;;;11.94;43.21
69219;BME280;56232;53.384;-2.732;2023-11-19T04:02:49;99690.92;;;12.12;42.55
69219;BME280;56232;53.384;-2.732;2023-11-19T04:05:15;99688.38;;;12.21;42.88
69219;BME280;56232;53.384;-2.732;2023-11-19T04:07:40;99680.82;;;12.28;42.83
69219;BME280;56232;53.384;-2.732;2023-11-19T04:10:06;99682.03;;;13.02;42.97
69219;BME280;56232;53.384;-2.732;2023-11-19T04:12:31;99684.82;;;12.54;42.70
69219;BME280;56232;53.384;-2.732;2023-11-19T04:14:56;99682.54;;;12.61;42.90
69219;BME280;56232;53.384;-2.732;2023-11-19T04:17:22;99680.69;;;12.72;42.46
69219;BME280;56232;53.384;-2.732;2023-11-19T04:19:47;99678.38;;;12.70;42.33
69219;BME280;56232;53.384;-2.732;2023-11-19T04:22:13;99672.21;;;12.57;41.79
69219;BME280;56232;53.384;-2.732;2023-11-19T04:24:39;99671.31;;;12.48;42.48
69219;BME280;56232;53.384;-2.732;2023-11-19T04:27:04;99671.34;;;12.53;41.99
69219;BME280;56232;53.384;-2.732;2023-11-19T04:29:30;99669.35;;;12.44;41.92
69219;BME280;56232;53.384;-2.732;2023-11-19T04:31:55;99664.90;;;12.35;42.37
69219;BME280;56232;53.384;-2.732;2023-11-19T04:34:21;99669.74;;;12.45;42.21
69219;BME280;56232;53.384;-2.732;2023-11-19T04:36:46;99677.18;;;12.38;42.42
69219;BME280;56232;53.384;-2.732;2023-11-19T04:39:12;99674.07;;;12.44;42.51
69219;BME280;56232;53.384;-2.732;2023-11-19T04:41:45;99672.98;;;12.51;41.85
69219;BME280;56232;53.384;-2.732;2023-11-19T04:44:03;99664.82;;;12.42;41.85
69219;BME280;56232;53.384;-2.732;2023-11-19T04:46:29;99667.98;;;12.31;42.08
69219;BME280;56232;53.384;-2.732;2023-11-19T04:48:54;99670.01;;;12.22;42.29
69219;BME280;56232;53.384;-2.732;2023-11-19T04:51:20;99674.25;;;12.29;42.82
69219;BME280;56232;53.384;-2.732;2023-11-19T04:53:45;99679.92;;;12.99;42.47
69219;BME280;56232;53.384;-2.732;2023-11-19T04:56:11;99672.80;;;12.41;42.16
69219;BME280;56232;53.384;-2.732;2023-11-19T04:58:37;99673.62;;;12.39;42.62
69219;BME280;56232;53.384;-2.732;2023-11-19T05:01:02;99668.97;;;12.49;42.64
69219;BME280;56232;53.384;-2.732;2023-11-19T05:03:27;99665.06;;;12.59;42.03
69219;BME280;56232;53.384;-2.732;2023-11-19T05:05:53;99662.59;;;12.61;42.43
69219;BME280;56232;53.384;-2.732;2023-11-19T05:08:19;99657.30;;;12.78;42.66
69219;BME280;56232;53.384;-2.732;2023-11-19T05:10:44;99654.75;;;13.48;41.69
69219;BME280;56232;53.384;-2.732;2023-11-19T05:13:10;99655.51;;;12.37;42.37
69219;BME280;56232;53.384;-2.732;2023-11-19T05:15:35;99657.98;;;12.91;42.40
69219;BME280;56232;53.384;-2.732;2023-11-19T05:18:01;99658.94;;;12.47;41.81
69219;BME280;56232;53.384;-2.732;2023-11-19T05:20:27;99654.66;;;12.90;42.11
69219;BME280;56232;53.384;-2.732;2023-11-19T05:22:52;99659.37;;;12.47;42.16
69219;BME280;56232;53.384;-2.732;2023-11-19T05:25:17;99660.83;;;13.08;41.88
69219;BME280;56232;53.384;-2.732;2023-11-19T05:27:43;99662.80;;;13.10;42.20
69219;BME280;56232;53.384;-2.732;2023-11-19T05:30:09;99661.03;;;13.11;41.83
69219;BME280;56232;53.384;-2.732;2023-11-19T05:32:35;99660.38;;;13.04;41.41
69219;BME280;56232;53.384;-2.732;2023-11-19T05:35:00;99660.16;;;13.07;41.47
69219;BME280;56232;53.384;-2.732;2023-11-19T05:37:25;99665.07;;;12.86;41.80
69219;BME280;56232;53.384;-2.732;2023-11-19T05:39:51;99660.50;;;12.78;41.89
69219;BME280;56232;53.384;-2.732;2023-11-19T05:42:16;99655.12;;;13.37;41.65
69219;BME280;56232;53.384;-2.732;2023-11-19T05:44:42;99653.47;;;13.27;42.10
69219;BME280;56232;53.384;-2.732;2023-11-19T05:47:08;99655.47;;;12.70;41.93
69219;BME280;56232;53.384;-2.732;2023-11-19T05:49:34;99654.66;;;12.81;42.60
69219;BME280;56232;53.384;-2.732;2023-11-19T05:51:59;99649.40;;;12.46;42.18
69219;BME280;56232;53.384;-2.732;2023-11-19T05:54:29;99653.60;;;12.63;42.52
69219;BME280;56232;53.384;-2.732;2023-11-19T05:56:50;99657.92;;;12.79;42.28
69219;BME280;56232;53.384;-2.732;2023-11-19T05:59:15;99652.01;;;13.45;42.20
69219;BME280;56232;53.384;-2.732;2023-11-19T06:01:41;99650.38;;;12.60;42.06
69219;BME280;56232;53.384;-2.732;2023-11-19T06:04:06;99650.55;;;13.60;41.24
69219;BME280;56232;53.384;-2.732;2023-11-19T06:06:32;99650.69;;;12.45;41.38
69219;BME280;56232;53.384;-2.732;2023-11-19T06:08:57;99645.72;;;13.20;41.67
69219;BME280;56232;53.384;-2.732;2023-11-19T06:11:23;99646.99;;;13.26;41.71
69219;BME280;56232;53.384;-2.732;2023-11-19T06:13:49;99644.58;;;12.74;41.58
69219;BME280;56232;53.384;-2.732;2023-11-19T06:16:14;99646.21;;;13.13;41.82
69219;BME280;56232;53.384;-2.732;2023-11-19T06:18:40;99644.06;;;13.15;41.43
69219;BME280;56232;53.384;-2.732;2023-11-19T06:21:06;99636.63;;;13.13;41.51
69219;BME280;56232;53.384;-2.732;2023-11-19T06:23:31;99642.95;;;13.05;41.67
69219;BME280;56232;53.384;-2.732;2023-11-19T06:25:56;99645.45;;;12.68;42.21
69219;BME280;56232;53.384;-2.732;2023-11-19T06:28:22;99647.60;;;13.26;41.91
69219;BME280;56232;53.384;-2.732;2023-11-19T06:30:47;99648.50;;;13.33;41.36
69219;BME280;56232;53.384;-2.732;2023-11-19T06:33:13;99649.20;;;13.17;41.51
69219;BME280;56232;53.384;-2.732;2023-11-19T06:35:38;99649.84;;;13.01;41.46
69219;BME280;56232;53.384;-2.732;2023-11-19T06:38:04;99643.73;;;12.95;42.06
69219;BME280;56232;53.384;-2.732;2023-11-19T06:40:30;99637.88;;;12.51;41.89
69219;BME280;56232;53.384;-2.732;2023-11-19T06:42:55;99635.63;;;13.12;41.88
69219;BME280;56232;53.384;-2.732;2023-11-19T06:45:21;99644.34;;;13.15;41.78
69219;BME280;56232;53.384;-2.732;2023-11-19T06:47:46;99640.56;;;13.23;42.15
69219;BME280;56232;53.384;-2.732;2023-11-19T06:50:12;99636.23;;;13.34;41.58
69219;BME280;56232;53.384;-2.732;2023-11-19T06:52:38;99638.51;;;12.88;41.71
69219;BME280;56232;53.384;-2.732;2023-11-19T06:55:04;99629.24;;;12.99;41.75
69219;BME280;56232;53.384;-2.732;2023-11-19T06:57:29;99632.45;;;13.49;41.06
69219;BME280;56232;53.384;-2.732;2023-11-19T06:59:55;99638.87;;;13.40;41.45
69219;BME280;56232;53.384;-2.732;2023-11-19T07:02:20;99642.05;;;13.43;41.58
69219;BME280;56232;53.384;-2.732;2023-11-19T07:04:45;99636.73;;;13.53;41.51
69219;BME280;56232;53.384;-2.732;2023-11-19T07:07:11;99645.05;;;13.66;41.20
69219;BME280;56232;53.384;-2.732;2023-11-19T07:09:36;99644.66;;;13.66;41.15
69219;BME280;56232;53.384;-2.732;2023-11-19T07:12:02;99652.33;;;13.76;40.94
69219;BME280;56232;53.384;-2.732;2023-11-19T07:14:27;99645.80;;;13.68;41.01
69219;BME280;56232;53.384;-2.732;2023-11-19T07:16:52;99647.48;;;13.60;40.68
69219;BME280;56232;53.384;-2.732;2023-11-19T07:19:18;99649.82;;;13.46;40.99
69219;BME280;56232;53.384;-2.732;2023-11-19T07:21:44;99651.79;;;13.35;41.57
69219;BME280;56232;53.384;-2.732;2023-11-19T07:24:10;99651.10;;;13.42;41.38
69219;BME280;56232;53.384;-2.732;2023-11-19T07:26:35;99648.32;;;13.33;41.20
69219;BME280;56232;53.384;-2.732;2023-11-19T07:29:00;99654.64;;;13.39;41.56
69219;BME280;56232;53.384;-2.732;2023-11-19T07:31:26;99646.18;;;13.38;41.70
69219;BME280;56232;53.384;-2.732;2023-11-19T07:33:51;99648.83;;;13.42;41.61
69219;BME280;56232;53.384;-2.732;2023-11-19T07:36:17;99635.88;;;13.06;41.38
69219;BME280;56232;53.384;-2.732;2023-11-19T07:38:42;99635.39;;;13.59;41.23
69219;BME280;56232;53.384;-2.732;2023-11-19T07:41:08;99639.52;;;13.15;41.22
69219;BME280;56232;53.384;-2.732;2023-11-19T07:43:35;99636.79;;;13.68;41.39
69219;BME280;56232;53.384;-2.732;2023-11-19T07:45:59;99635.13;;;13.12;41.09
69219;BME280;56232;53.384;-2.732;2023-11-19T07:48:25;99639.88;;;13.58;40.94
69219;BME280;56232;53.384;-2.732;2023-11-19T07:50:50;99636.53;;;13.09;41.55
69219;BME280;56232;53.384;-2.732;2023-11-19T07:53:16;99638.70;;;12.69;41.09
69219;BME280;56232;53.384;-2.732;2023-11-19T07:55:41;99645.69;;;13.05;41.21
69219;BME280;56232;53.384;-2.732;2023-11-19T07:58:07;99646.87;;;13.43;41.63
69219;BME280;56232;53.384;-2.732;2023-11-19T08:00:33;99643.53;;;12.95;41.65
69219;BME280;56232;53.384;-2.732;2023-11-19T08:02:58;99635.77;;;13.53;41.18
69219;BME280;56232;53.384;-2.732;2023-11-19T08:05:24;99642.22;;;13.53;41.41
69219;BME280;56232;53.384;-2.732;2023-11-19T08:07:50;99634.57;;;13.09;41.74
69219;BME280;56232;53.384;-2.732;2023-11-19T08:10:15;99636.72;;;13.70;41.43
69219;BME280;56232;53.384;-2.732;2023-11-19T08:12:41;99639.36;;;12.82;41.58
69219;BME280;56232;53.384;-2.732;2023-11-19T08:15:07;99633.47;;;13.86;41.50
69219;BME280;56232;53.384;-2.732;2023-11-19T08:17:32;99643.71;;;13.90;41.41
69219;BME280;56232;53.384;-2.732;2023-11-19T08:19:57;99640.97;;;13.98;41.74
69219;BME280;56232;53.384;-2.732;2023-11-19T08:22:22;99641.83;;;13.13;41.53
69219;BME280;56232;53.384;-2.732;2023-11-19T08:24:48;99636.51;;;13.28;41.26
69219;BME280;56232;53.384;-2.732;2023-11-19T08:27:14;99638.32;;;13.39;41.03
69219;BME280;56232;53.384;-2.732;2023-11-19T08:29:39;99635.08;;;13.54;41.28
69219;BME280;56232;53.384;-2.732;2023-11-19T08:32:06;99628.81;;;13.74;40.94
69219;BME280;56232;53.384;-2.732;2023-11-19T08:34:30;99631.79;;;13.93;40.85
69219;BME280;56232;53.384;-2.732;2023-11-19T08:36:56;99620.94;;;14.06;40.60
69219;BME280;56232;53.384;-2.732;2023-11-19T08:39:21;99624.65;;;14.12;40.83
69219;BME280;56232;53.384;-2.732;2023-11-19T08:41:47;99626.20;;;14.15;40.89
69219;BME280;56232;53.384;-2.732;2023-11-19T08:44:12;99623.86;;;14.21;40.87
69219;BME280;56232;53.384;-2.732;2023-11-19T08:46:38;99625.69;;;14.22;40.73
69219;BME280;56232;53.384;-2.732;2023-11-19T08:49:03;99626.61;;;13.08;40.77
69219;BME280;56232;53.384;-2.732;2023-11-19T08:51:29;99623.56;;;14.25;40.85
69219;BME280;56232;53.384;-2.732;2023-11-19T08:53:54;99626.38;;;14.32;40.57
69219;BME280;56232;53.384;-2.732;2023-11-19T08:56:19;99626.82;;;14.30;40.77
69219;BME280;56232;53.384;-2.732;2023-11-19T08:58:45;99635.18;;;14.17;41.08
69219;BME280;56232;53.384;-2.732;2023-11-19T09:01:11;99633.83;;;13.95;40.85
69219;BME280;56232;53.384;-2.732;2023-11-19T09:03:36;99634.77;;;13.78;41.29
69219;BME280;56232;53.384;-2.732;2023-11-19T09:06:02;99634.19;;;14.20;41.55
69219;BME280;56232;53.384;-2.732;2023-11-19T09:08:27;99633.55;;;14.10;41.39
69219;BME280;56232;53.384;-2.732;2023-11-19T09:10:53;99631.24;;;13.87;41.67
69219;BME280;56232;53.384;-2.732;2023-11-19T09:13:19;99622.47;;;14.27;41.93
69219;BME280;56232;53.384;-2.732;2023-11-19T09:15:44;99624.08;;;13.27;42.13
69219;BME280;56232;53.384;-2.732;2023-11-19T09:18:10;99618.99;;;13.27;42.01
69219;BME280;56232;53.384;-2.732;2023-11-19T09:20:36;99616.79;;;13.87;42.27
69219;BME280;56232;53.384;-2.732;2023-11-19T09:23:01;99622.18;;;13.50;42.35
69219;BME280;56232;53.384;-2.732;2023-11-19T09:25:27;99626.34;;;13.53;42.29
69219;BME280;56232;53.384;-2.732;2023-11-19T09:27:52;99621.04;;;13.97;42.20
69219;BME280;56232;53.384;-2.732;2023-11-19T09:30:18;99620.96;;;13.38;42.10
69219;BME280;56232;53.384;-2.732;2023-11-19T09:32:43;99616.93;;;13.21;42.23
69219;BME280;56232;53.384;-2.732;2023-11-19T09:35:09;99613.41;;;13.58;42.38
69219;BME280;56232;53.384;-2.732;2023-11-19T09:37:35;99612.70;;;13.53;42.25
69219;BME280;56232;53.384;-2.732;2023-11-19T09:40:00;99611.95;;;12.93;42.38
69219;BME280;56232;53.384;-2.732;2023-11-19T09:42:26;99606.42;;;13.80;42.59
69219;BME280;56232;53.384;-2.732;2023-11-19T09:44:52;99609.04;;;13.84;42.56
69219;BME280;56232;53.384;-2.732;2023-11-19T09:47:17;99612.65;;;13.80;42.65
69219;BME280;56232;53.384;-2.732;2023-11-19T09:49:43;99609.95;;;13.27;42.77
69219;BME280;56232;53.384;-2.732;2023-11-19T09:52:08;99609.51;;;13.82;42.99
69219;BME280;56232;53.384;-2.732;2023-11-19T09:54:34;99607.40;;;14.00;42.96
69219;BME280;56232;53.384;-2.732;2023-11-19T09:57:00;99609.87;;;13.17;43.09
69219;BME280;56232;53.384;-2.732;2023-11-19T09:59:25;99603.98;;;14.33;42.84
69219;BME280;56232;53.384;-2.732;2023-11-19T10:01:51;99601.19;;;13.94;42.95
69219;BME280;56232;53.384;-2.732;2023-11-19T10:04:17;99596.61;;;13.92;42.42
69219;BME280;56232;53.384;-2.732;2023-11-19T10:06:42;99594.72;;;13.77;42.61
69219;BME280;56232;53.384;-2.732;2023-11-19T10:09:07;99590.54;;;13.62;42.38
69219;BME280;56232;53.384;-2.732;2023-11-19T10:11:34;99590.43;;;12.89;42.80
69219;BME280;56232;53.384;-2.732;2023-11-19T10:13:59;99589.20;;;12.88;43.09
69219;BME280;56232;53.384;-2.732;2023-11-19T10:16:28;99585.97;;;13.41;43.19
69219;BME280;56232;53.384;-2.732;2023-11-19T10:18:50;99588.31;;;13.41;43.17
69219;BME280;56232;53.384;-2.732;2023-11-19T10:21:17;99586.47;;;12.95;42.98
69219;BME280;56232;53.384;-2.732;2023-11-19T10:23:47;99586.05;;;13.95;43.07
69219;BME280;56232;53.384;-2.732;2023-11-19T10:26:07;99585.64;;;13.88;42.92
69219;BME280;56232;53.384;-2.732;2023-11-19T10:28:42;99587.63;;;13.84;42.96
69219;BME280;56232;53.384;-2.732;2023-11-19T10:30:58;99590.66;;;13.68;42.97
69219;BME280;56232;53.384;-2.732;2023-11-19T10:33:23;99595.36;;;12.99;43.14
69219;BME280;56232;53.384;-2.732;2023-11-19T10:35:53;99599.30;;;13.35;43.58
69219;BME280;56232;53.384;-2.732;2023-11-19T10:38:15;99599.48;;;12.80;43.31
69219;BME280;56232;53.384;-2.732;2023-11-19T10:40:40;99598.68;;;13.09;43.77
69219;BME280;56232;53.384;-2.732;2023-11-19T10:43:06;99589.82;;;13.05;43.72
69219;BME280;56232;53.384;-2.732;2023-11-19T10:45:31;99587.77;;;13.11;43.76
69219;BME280;56232;53.384;-2.732;2023-11-19T10:47:57;99584.58;;;13.21;43.53
69219;BME280;56232;53.384;-2.732;2023-11-19T10:50:28;99585.70;;;13.27;44.03
69219;BME280;56232;53.384;-2.732;2023-11-19T10:52:48;99582.23;;;13.64;44.07
69219;BME280;56232;53.384;-2.732;2023-11-19T10:55:15;99588.15;;;13.77;43.47
69219;BME280;56232;53.384;-2.732;2023-11-19T10:57:42;99582.97;;;13.73;43.50
69219;BME280;56232;53.384;-2.732;2023-11-19T11:00:06;99581.85;;;13.16;43.52
69219;BME280;56232;53.384;-2.732;2023-11-19T11:02:34;99581.57;;;13.63;43.39
69219;BME280;56232;53.384;-2.732;2023-11-19T11:04:56;99586.08;;;12.99;43.60
69219;BME280;56232;53.384;-2.732;2023-11-19T11:07:22;99589.90;;;13.53;43.80
69219;BME280;56232;53.384;-2.732;2023-11-19T11:09:47;99587.13;;;13.81;44.17
69219;BME280;56232;53.384;-2.732;2023-11-19T11:12:13;99586.44;;;13.22;43.87
69219;BME280;56232;53.384;-2.732;2023-11-19T11:14:39;99584.20;;;14.12;43.88
69219;BME280;56232;53.384;-2.732;2023-11-19T11:17:04;99578.90;;;13.93;43.56
69219;BME280;56232;53.384;-2.732;2023-11-19T11:19:30;99577.97;;;13.35;43.38
69219;BME280;56232;53.384;-2.732;2023-11-19T11:21:56;99574.12;;;14.58;42.76
69219;BME280;56232;53.384;-2.732;2023-11-19T11:24:31;99575.17;;;14.59;43.00
69219;BME280;56232;53.384;-2.732;2023-11-19T11:27:01;99577.72;;;14.63;43.33
69219;BME280;56232;53.384;-2.732;2023-11-19T11:29:19;99575.58;;;14.27;43.41
69219;BME280;56232;53.384;-2.732;2023-11-19T11:31:44;99575.74;;;14.98;43.35
69219;BME280;56232;53.384;-2.732;2023-11-19T11:34:15;99574.31;;;15.12;43.23
69219;BME280;56232;53.384;-2.732;2023-11-19T11:36:31;99575.91;;;14.59;42.62
69219;BME280;56232;53.384;-2.732;2023-11-19T11:38:58;99580.47;;;14.42;42.51
69219;BME280;56232;53.384;-2.732;2023-11-19T11:41:21;99576.37;;;13.73;42.60
69219;BME280;56232;53.384;-2.732;2023-11-19T11:43:47;99576.18;;;14.86;42.92
69219;BME280;56232;53.384;-2.732;2023-11-19T11:48:43;99569.42;;;15.12;43.11
69219;BME280;56232;53.384;-2.732;2023-11-19T11:51:03;99568.54;;;15.41;42.73
69219;BME280;56232;53.384;-2.732;2023-11-19T11:53:30;99570.04;;;14.44;43.19
69219;BME280;56232;53.384;-2.732;2023-11-19T11:55:55;99572.27;;;14.62;42.70
69219;BME280;56232;53.384;-2.732;2023-11-19T11:58:19;99568.09;;;15.86;42.88
69219;BME280;56232;53.384;-2.732;2023-11-19T12:00:47;99562.84;;;14.85;42.58
69219;BME280;56232;53.384;-2.732;2023-11-19T12:03:11;99559.51;;;15.51;42.73
69219;BME280;56232;53.384;-2.732;2023-11-19T12:05:39;99561.93;;;15.09;42.64
69219;BME280;56232;53.384;-2.732;2023-11-19T12:08:03;99563.36;;;15.12;42.51
69219;BME280;56232;53.384;-2.732;2023-11-19T12:10:29;99559.28;;;15.73;42.32
69219;BME280;56232;53.384;-2.732;2023-11-19T12:12:53;99560.62;;;15.12;42.44
69219;BME280;56232;53.384;-2.732;2023-11-19T12:15:18;99560.81;;;15.14;42.31
69219;BME280;56232;53.384;-2.732;2023-11-19T12:17:47;99562.28;;;15.08;42.54
69219;BME280;56232;53.384;-2.732;2023-11-19T12:20:09;99557.70;;;15.00;42.42
69219;BME280;56232;53.384;-2.732;2023-11-19T12:22:36;99555.41;;;14.91;42.63
69219;BME280;56232;53.384;-2.732;2023-11-19T12:25:01;99555.56;;;14.98;42.99
69219;BME280;56232;53.384;-2.732;2023-11-19T12:27:26;99558.77;;;15.09;42.62
69219;BME280;56232;53.384;-2.732;2023-11-19T12:29:51;99560.36;;;15.10;42.60
69219;BME280;56232;53.384;-2.732;2023-11-19T12:32:17;99562.63;;;15.26;42.04
69219;BME280;56232;53.384;-2.732;2023-11-19T12:34:43;99566.63;;;15.11;42.11
69219;BME280;56232;53.384;-2.732;2023-11-19T12:37:08;99568.32;;;15.08;42.15
69219;BME280;56232;53.384;-2.732;2023-11-19T12:39:35;99569.93;;;15.09;42.48
69219;BME280;56232;53.384;-2.732;2023-11-19T12:42:00;99569.94;;;14.54;42.14